Time;durP1;ratioP1;P1;durP2;ratioP2;P2;SDS_P1;SDS_P2;PMS_P1;PMS_P2;Temp;Humidity;BMP_temperature;BMP_pressure;BME280_temperature;BME280_humidity;BME280_pressure;Samples;Min_cycle;Max_cycle;Signal;HPM_P1;HPM_P2
2022/05/03 05:57:07;;;;;;;37.03;11.40;;;13.30;1.00;;;;;;6005253;22;4815038;-84
2022/05/03 05:59:37;;;;;;;18.20;7.73;;;13.50;1.00;;;;;;6213959;22;20218;-84
2022/05/03 06:02:08;;;;;;;15.00;7.33;;;13.60;1.00;;;;;;6212703;22;20450;-83
2022/05/03 06:10:58;;;;;;;17.67;6.43;;;14.00;1.00;;;;;;6206260;22;21200;-84
2022/05/03 06:14:17;;;;;;;11.10;5.60;;;14.00;1.00;;;;;;6221396;22;20451;-85
2022/05/03 06:17:18;;;;;;;;;;;;;;;;;;;;;
2022/05/03 06:19:58;;;;;;;12.90;5.60;;;14.20;1.00;;;;;;6210616;22;49110;-84
2022/05/03 06:25:54;;;;;;;14.27;5.57;;;14.40;1.00;;;;;;6209742;22;20851;-83
2022/05/03 06:28:26;;;;;;;11.47;5.60;;;14.50;1.00;;;;;;6204476;22;20426;-82
2022/05/03 06:30:58;;;;;;;10.30;4.40;;;14.80;1.00;;;;;;6203726;23;20418;-83
2022/05/03 06:33:27;;;;;;;13.40;4.87;;;14.80;1.00;;;;;;6203361;22;20579;-83
2022/05/03 06:36:04;;;;;;;12.57;5.10;;;14.80;1.00;;;;;;6203617;23;20502;-84
2022/05/03 06:38:35;;;;;;;8.83;4.40;;;14.90;1.00;;;;;;6203617;22;21102;-84
2022/05/03 06:41:06;;;;;;;13.90;5.70;;;15.00;1.00;;;;;;6204747;22;21492;-84
2022/05/03 06:43:33;;;;;;;24.17;11.57;;;14.90;1.00;;;;;;6255389;22;20432;-84
2022/05/03 06:45:59;;;;;;;13.80;6.37;;;15.00;1.00;;;;;;6206788;23;20804;-85
2022/05/03 06:48:26;;;;;;;13.40;4.90;;;15.00;1.00;;;;;;6204992;23;20442;-83
2022/05/03 06:50:55;;;;;;;13.67;4.60;;;15.00;1.00;;;;;;6203984;23;21153;-83
2022/05/03 06:53:25;;;;;;;7.20;3.50;;;15.00;1.00;;;;;;6206708;22;20437;-85
2022/05/03 12:52:39;;;;;;;5.70;1.10;;;32.10;1.00;;;;;;6044308;23;20502;-85
2022/05/03 12:55:19;;;;;;;6.00;1.40;;;33.60;1.00;;;;;;6055653;23;20975;-86
2022/05/03 13:01:16;;;;;;;6.40;1.77;;;36.30;1.00;;;;;;6182310;23;20453;-87
2022/05/03 13:04:35;;;;;;;9.17;2.60;;;37.20;1.00;;;;;;6092682;23;20425;-85
2022/05/03 13:11:08;;;;;;;9.10;3.70;;;38.10;1.00;;;;;;6179304;23;20426;-86
2022/05/03 13:23:58;;;;;;;7.13;1.80;;;28.50;1.00;;;;;;6138943;23;20406;-86
2022/05/03 18:41:47;;;;;;;8.00;3.00;;;17.10;1.00;;;;;;6067979;22;4348539;-83
2022/05/03 18:44:17;;;;;;;7.23;3.13;;;17.00;1.00;;;;;;6080989;23;20562;-81
2022/05/03 18:49:39;;;;;;;7.90;2.97;;;16.70;1.00;;;;;;6063895;23;20426;-83
2022/05/03 18:52:10;;;;;;;7.00;3.03;;;16.60;1.00;;;;;;6123115;23;20776;-83
2022/05/03 18:57:30;;;;;;;8.50;3.13;;;16.40;1.00;;;;;;6114966;23;20575;-82
2022/05/03 19:00:00;;;;;;;10.93;5.90;;;16.30;1.00;;;;;;6106950;23;20440;-83
2022/05/03 19:02:29;;;;;;;11.83;3.77;;;16.20;1.00;;;;;;6108131;23;20438;-83
2022/05/03 19:04:57;;;;;;;8.87;4.00;;;16.10;1.00;;;;;;6096840;23;20530;-83
2022/05/03 19:07:30;;;;;;;12.13;4.60;;;16.00;1.00;;;;;;6111407;23;20548;-83
2022/05/03 19:10:10;;;;;;;8.33;3.70;;;15.90;1.00;;;;;;6090270;23;20437;-83
2022/05/03 19:12:49;;;;;;;10.80;3.80;;;15.90;1.00;;;;;;6087339;23;20440;-84
2022/05/03 19:15:28;;;;;;;8.20;3.40;;;15.80;1.00;;;;;;6095119;23;20431;-83
2022/05/03 19:17:58;;;;;;;8.73;3.97;;;15.80;1.00;;;;;;6099104;23;20522;-82
2022/05/03 19:20:29;;;;;;;9.00;3.83;;;15.70;1.00;;;;;;6080030;23;20436;-84
2022/05/03 19:22:57;;;;;;;8.73;4.20;;;15.60;1.00;;;;;;6095822;23;20461;-83
2022/05/03 19:31:50;;;;;;;8.60;4.10;;;15.40;1.00;;;;;;6085037;23;20523;-83
2022/05/03 19:34:20;;;;;;;8.20;4.23;;;15.30;1.00;;;;;;6071608;23;20792;-84
2022/05/03 19:36:50;;;;;;;9.50;4.80;;;15.20;1.00;;;;;;6097938;23;20439;-85
2022/05/03 19:39:19;;;;;;;8.80;4.20;;;15.20;1.00;;;;;;6094259;23;20422;-84
2022/05/03 19:41:59;;;;;;;9.40;4.50;;;15.10;1.00;;;;;;6124022;23;20855;-84
2022/05/03 19:44:56;;;;;;;13.10;6.43;;;15.10;1.00;;;;;;6020178;23;20499;-85
2022/05/03 19:47:28;;;;;;;9.63;4.43;;;15.00;1.00;;;;;;6002071;23;20481;-85
2022/05/03 19:50:11;;;;;;;11.60;5.83;;;14.90;1.00;;;;;;6046190;23;21537;-85
2022/05/03 19:52:39;;;;;;;12.50;5.80;;;14.90;1.00;;;;;;6016099;23;20429;-84
2022/05/03 19:55:15;;;;;;;8.83;4.77;;;14.80;1.00;;;;;;6096048;23;20434;-85
2022/05/03 19:57:48;;;;;;;8.30;4.90;;;14.80;1.00;;;;;;6089135;23;20445;-85
2022/05/03 20:00:30;;;;;;;;;;;;;;;;;;;;;
2022/05/03 20:03:08;;;;;;;8.37;4.87;;;14.70;1.00;;;;;;6123456;23;42459;-85
2022/05/03 20:05:40;;;;;;;10.07;5.17;;;14.60;1.00;;;;;;6098970;23;20927;-85
2022/05/03 20:08:26;;;;;;;14.70;5.63;;;14.60;1.00;;;;;;6096132;23;20444;-85
2022/05/03 20:10:58;;;;;;;10.07;6.03;;;14.50;1.00;;;;;;6098740;23;20505;-84
2022/05/03 20:13:39;;;;;;;15.00;6.03;;;14.50;1.00;;;;;;6093665;23;20455;-85
2022/05/03 20:16:10;;;;;;;10.90;5.70;;;14.40;1.00;;;;;;6102812;23;20503;-85
2022/05/03 20:18:50;;;;;;;9.87;4.93;;;14.40;1.00;;;;;;6097775;23;20809;-84
2022/05/03 20:21:29;;;;;;;11.27;7.60;;;14.30;1.00;;;;;;6084358;23;20906;-85
2022/05/03 20:26:57;;;;;;;9.97;5.00;;;14.20;1.00;;;;;;6101593;23;20845;-84
2022/05/03 20:29:29;;;;;;;8.77;4.70;;;14.20;1.00;;;;;;6082920;23;20450;-85
2022/05/03 20:32:28;;;;;;;10.70;6.20;;;14.10;1.00;;;;;;6102705;23;20467;-84
2022/05/03 20:35:11;;;;;;;8.87;5.20;;;14.10;1.00;;;;;;6117123;23;21007;-84
2022/05/03 20:53:09;;;;;;;11.23;6.30;;;13.70;1.00;;;;;;5845735;24;21645;-83
2022/05/03 20:55:49;;;;;;;10.17;6.20;;;13.70;1.00;;;;;;5910964;23;20514;-84
2022/05/03 20:58:19;;;;;;;9.47;5.93;;;13.60;1.00;;;;;;5990842;23;20448;-83
2022/05/03 21:01:33;;;;;;;9.97;6.00;;;13.60;1.00;;;;;;6071564;23;20436;-84
2022/05/03 21:03:48;;;;;;;9.80;5.40;;;13.70;1.00;;;;;;6096248;23;20505;-83
2022/05/03 21:06:39;;;;;;;13.60;6.27;;;13.60;1.00;;;;;;6109715;23;20462;-82
2022/05/03 21:09:10;;;;;;;10.20;5.70;;;13.60;1.00;;;;;;5978202;23;20423;-83
2022/05/03 21:11:40;;;;;;;13.13;6.10;;;13.70;1.00;;;;;;6044683;23;20790;-83
2022/05/03 21:14:17;;;;;;;12.00;6.27;;;13.70;1.00;;;;;;6098594;23;20441;-83
2022/05/03 21:16:51;;;;;;;11.80;6.30;;;13.70;1.00;;;;;;6112542;23;20607;-83
2022/05/03 21:19:19;;;;;;;9.90;6.23;;;13.80;1.00;;;;;;6084000;23;20450;-84
2022/05/03 21:21:49;;;;;;;10.10;5.97;;;13.80;1.00;;;;;;6100029;23;20509;-84
2022/05/03 21:24:20;;;;;;;9.40;5.63;;;13.80;1.00;;;;;;6123761;23;20498;-84
2022/05/03 21:26:49;;;;;;;11.40;6.60;;;13.70;1.00;;;;;;6131986;23;20433;-83
2022/05/03 21:29:19;;;;;;;9.37;6.00;;;13.70;1.00;;;;;;6105813;23;20477;-83
2022/05/03 21:31:45;;;;;;;9.60;5.67;;;13.60;1.00;;;;;;6122438;23;20912;-83
2022/05/03 21:34:18;;;;;;;8.87;6.03;;;13.50;1.00;;;;;;6109040;23;20454;-83
2022/05/03 21:36:49;;;;;;;11.13;6.97;;;13.40;1.00;;;;;;6131438;23;20438;-83
2022/05/03 21:39:20;;;;;;;10.87;5.87;;;13.30;1.00;;;;;;6109184;23;20811;-84
2022/05/03 21:42:39;;;;;;;10.17;6.60;;;13.20;1.00;;;;;;6089408;23;20451;-84
2022/05/03 21:45:20;;;;;;;10.27;7.27;;;13.10;1.00;;;;;;6059430;23;20442;-84
2022/05/03 21:47:49;;;;;;;9.97;6.77;;;13.00;1.00;;;;;;6089946;23;20430;-84
2022/05/03 21:53:29;;;;;;;13.77;7.20;;;13.00;1.00;;;;;;6072028;23;20631;-83
2022/05/03 21:56:29;;;;;;;10.17;6.70;;;12.90;1.00;;;;;;6100360;23;20448;-84
2022/05/03 21:59:00;;;;;;;11.53;6.70;;;12.90;1.00;;;;;;6122253;23;20400;-83
2022/05/03 22:01:30;;;;;;;10.77;7.13;;;12.90;1.00;;;;;;6106399;23;20402;-84
2022/05/03 22:04:07;;;;;;;11.30;6.37;;;12.90;1.00;;;;;;6119139;23;20401;-87
2022/05/03 22:06:49;;;;;;;9.73;6.97;;;12.80;1.00;;;;;;6131092;23;20417;-86
2022/05/03 22:09:18;;;;;;;10.00;6.20;;;12.80;1.00;;;;;;6117654;23;20406;-84
2022/05/03 22:11:48;;;;;;;9.27;6.33;;;12.80;1.00;;;;;;6131629;23;20406;-84
2022/05/03 22:14:37;;;;;;;12.03;5.90;;;12.80;1.00;;;;;;6129083;23;20402;-84
2022/05/03 22:17:08;;;;;;;8.90;5.63;;;12.70;1.00;;;;;;6137551;23;20408;-84
2022/05/03 22:19:39;;;;;;;9.07;5.83;;;12.70;1.00;;;;;;6130793;23;20386;-84
2022/05/03 22:22:08;;;;;;;10.13;5.70;;;12.70;1.00;;;;;;6127485;23;20391;-82
2022/05/03 22:24:38;;;;;;;9.27;5.77;;;12.60;1.00;;;;;;6130085;23;20401;-83
2022/05/03 22:27:08;;;;;;;8.27;5.93;;;12.60;1.00;;;;;;6135339;23;20402;-81
2022/05/03 22:29:41;;;;;;;10.00;6.60;;;12.60;1.00;;;;;;6118141;23;20433;-83
2022/05/03 22:32:09;;;;;;;8.67;5.93;;;12.60;1.00;;;;;;6119206;23;20413;-83
2022/05/03 22:34:38;;;;;;;9.20;6.10;;;12.50;1.00;;;;;;6113262;23;20379;-86
2022/05/03 22:37:10;;;;;;;9.47;5.30;;;12.40;1.00;;;;;;6113064;23;20397;-84
2022/05/03 22:39:38;;;;;;;14.23;6.77;;;12.40;1.00;;;;;;6121034;23;20425;-84
2022/05/03 22:42:09;;;;;;;10.23;5.90;;;12.30;1.00;;;;;;6108367;23;20402;-87
2022/05/03 22:44:48;;;;;;;9.13;5.30;;;12.30;1.00;;;;;;6103417;23;20388;-84
2022/05/03 22:47:19;;;;;;;10.43;6.00;;;12.20;1.00;;;;;;6115107;23;20419;-84
2022/05/03 22:49:48;;;;;;;10.90;6.20;;;12.20;1.00;;;;;;6119187;23;20405;-84
2022/05/03 22:52:19;;;;;;;7.50;5.10;;;12.30;1.00;;;;;;6087466;23;20410;-87
2022/05/03 22:54:48;;;;;;;11.37;6.20;;;12.40;1.00;;;;;;6111388;23;21027;-84
2022/05/03 22:57:29;;;;;;;11.27;6.20;;;12.50;1.00;;;;;;6137172;23;20449;-84
2022/05/03 23:00:00;;;;;;;9.80;5.30;;;12.70;1.00;;;;;;6106101;23;20382;-83
2022/05/03 23:02:29;;;;;;;9.23;5.70;;;12.80;1.00;;;;;;6129709;23;20392;-84
2022/05/03 23:04:59;;;;;;;9.40;5.50;;;12.90;1.00;;;;;;6132206;23;21131;-83
2022/05/03 23:07:30;;;;;;;9.17;5.97;;;13.00;1.00;;;;;;6121873;23;20449;-84
2022/05/03 23:10:00;;;;;;;8.70;6.43;;;13.00;1.00;;;;;;6142978;23;20397;-84
2022/05/03 23:12:28;;;;;;;11.73;5.47;;;13.00;1.00;;;;;;6116931;23;20432;-84
2022/05/03 23:15:00;;;;;;;10.40;5.40;;;13.00;1.00;;;;;;6128452;23;20428;-83
2022/05/03 23:17:30;;;;;;;9.60;6.13;;;13.00;1.00;;;;;;6130620;23;20441;-86
2022/05/03 23:20:00;;;;;;;10.40;6.60;;;13.10;1.00;;;;;;6124285;23;20473;-84
2022/05/03 23:22:29;;;;;;;10.37;5.73;;;13.00;1.00;;;;;;6119970;23;20434;-84
2022/05/03 23:25:00;;;;;;;9.83;5.80;;;13.10;1.00;;;;;;6125439;23;20398;-84
2022/05/03 23:27:34;;;;;;;9.20;5.60;;;13.10;1.00;;;;;;6125081;23;20404;-85
2022/05/03 23:30:07;;;;;;;8.90;5.33;;;13.10;1.00;;;;;;6135045;23;20498;-82
2022/05/03 23:32:43;;;;;;;10.23;6.13;;;13.10;1.00;;;;;;6130231;23;20477;-89
2022/05/03 23:35:13;;;;;;;9.70;5.70;;;13.20;1.00;;;;;;6125784;23;20886;-84
2022/05/03 23:37:47;;;;;;;8.20;5.50;;;13.10;1.00;;;;;;6132828;23;20484;-87
2022/05/03 23:40:20;;;;;;;10.57;7.30;;;13.10;1.00;;;;;;6131905;23;20391;-84
2022/05/03 23:42:59;;;;;;;9.70;5.90;;;13.10;1.00;;;;;;6134923;23;20398;-88
2022/05/03 23:51:11;;;;;;;9.00;6.10;;;12.80;1.00;;;;;;6132914;23;20440;-83
2022/05/03 23:53:50;;;;;;;9.70;6.20;;;12.60;1.00;;;;;;6130722;23;20398;-84
2022/05/03 23:56:19;;;;;;;12.50;6.60;;;12.60;1.00;;;;;;6125515;23;21710;-85
2022/05/03 23:58:49;;;;;;;9.80;6.77;;;12.50;1.00;;;;;;6138621;23;20523;-84
